createdAt,value
2022-09-03T03:58:04.224Z,0.00
2022-09-03T03:59:05.935Z,0.00
2022-09-03T04:00:04.503Z,0.00
2022-09-03T04:01:04.692Z,0.00
2022-09-03T04:02:04.832Z,0.00
2022-09-03T04:03:06.502Z,0.00
2022-09-03T04:04:05.052Z,0.00
2022-09-03T04:05:05.228Z,0.00
2022-09-03T04:06:05.372Z,0.00
2022-09-03T04:07:05.546Z,0.00
2022-09-03T04:08:07.249Z,0.00
2022-09-03T04:09:05.791Z,0.00
2022-09-03T04:10:09.451Z,0.00
2022-09-03T04:11:06.092Z,0.00
2022-09-03T04:12:09.763Z,0.00
2022-09-03T04:13:06.422Z,0.00
2022-09-03T04:14:06.533Z,0.00
2022-09-03T04:15:08.252Z,0.00
2022-09-03T04:16:06.797Z,0.00
2022-09-03T04:17:06.920Z,0.00
2022-09-03T04:18:07.020Z,0.00
2022-09-03T04:19:08.740Z,1.00
2022-09-03T04:20:07.199Z,1.00
2022-09-03T04:21:07.330Z,1.00
2022-09-03T04:22:09.030Z,2.00
2022-09-03T04:23:07.609Z,0.00
2022-09-03T04:24:09.329Z,2.00
2022-09-03T04:25:07.785Z,2.00
2022-09-03T04:26:07.889Z,3.00
2022-09-03T04:27:08.009Z,1.00
2022-09-03T04:28:09.725Z,3.00
2022-09-03T04:29:09.940Z,2.00
2022-09-03T04:30:08.338Z,4.00
2022-09-03T04:31:08.539Z,7.00
2022-09-03T04:32:10.209Z,5.00
2022-09-03T04:33:08.754Z,6.00
2022-09-03T04:34:09.878Z,6.00
2022-09-03T04:35:09.028Z,8.00
2022-09-03T04:36:10.749Z,8.00
2022-09-03T04:37:09.247Z,11.00
2022-09-03T04:38:09.358Z,12.00
2022-09-03T04:39:09.471Z,14.00
2022-09-03T04:40:11.187Z,14.00
2022-09-03T04:41:09.747Z,15.00
2022-09-03T04:42:09.876Z,17.00
2022-09-03T04:43:09.977Z,18.00
2022-09-03T04:44:10.088Z,19.00
2022-09-03T04:45:10.196Z,23.00
2022-09-03T04:46:16.443Z,23.00
2022-09-03T04:47:11.427Z,25.00
2022-09-03T04:48:10.577Z,25.00
2022-09-03T04:49:10.687Z,27.00
2022-09-03T04:50:10.788Z,31.00
2022-09-03T04:51:12.506Z,31.00
2022-09-03T04:52:11.068Z,32.00
2022-09-03T04:53:12.134Z,35.00
2022-09-03T04:54:11.285Z,37.00
2022-09-03T04:55:13.006Z,37.00
2022-09-03T04:56:11.505Z,40.00
2022-09-03T04:57:13.235Z,41.00
2022-09-03T04:58:11.726Z,45.00
2022-09-03T04:59:11.835Z,45.00
2022-09-03T05:00:11.954Z,46.00
2022-09-03T05:01:13.842Z,48.00
2022-09-03T05:02:13.982Z,52.00
2022-09-03T05:03:12.286Z,52.00
2022-09-03T05:04:12.399Z,55.00
2022-09-03T05:05:14.115Z,57.00
2022-09-03T05:06:12.625Z,60.00
2022-09-03T05:07:14.347Z,60.00
2022-09-03T05:08:12.853Z,62.00
2022-09-03T05:09:12.956Z,63.00
2022-09-03T05:10:14.687Z,66.00
2022-09-03T05:11:13.224Z,67.00
2022-09-03T05:12:14.966Z,69.00
2022-09-03T05:13:13.453Z,71.00
2022-09-03T05:14:15.184Z,73.00
2022-09-03T05:15:13.673Z,75.00
2022-09-03T05:16:13.819Z,76.00
2022-09-03T05:17:15.504Z,77.00
2022-09-03T05:18:15.025Z,79.00
2022-09-03T05:19:15.772Z,80.00
2022-09-03T05:20:14.281Z,82.00
2022-09-03T05:21:14.404Z,83.00
2022-09-03T05:22:14.514Z,84.00
2022-09-03T05:23:16.301Z,86.00
2022-09-03T05:24:16.511Z,87.00
2022-09-03T05:25:14.842Z,89.00
2022-09-03T05:26:14.962Z,91.00
2022-09-03T05:27:15.061Z,92.00
2022-09-03T05:28:15.297Z,93.00
2022-09-03T05:29:16.926Z,96.00
2022-09-03T05:30:15.421Z,98.00
2022-09-03T05:31:15.581Z,98.00
2022-09-03T05:32:17.322Z,98.00
2022-09-03T05:33:15.774Z,101.00
2022-09-03T05:34:16.516Z,102.00
2022-09-03T05:35:15.983Z,103.00
2022-09-03T05:36:16.168Z,105.00
2022-09-03T05:37:17.861Z,106.00
2022-09-03T05:38:16.417Z,108.00
2022-09-03T05:39:16.495Z,109.00
2022-09-03T05:40:16.596Z,113.00
2022-09-03T05:41:16.699Z,115.00
2022-09-03T05:42:18.419Z,118.00
2022-09-03T05:43:16.943Z,120.00
2022-09-03T05:44:17.049Z,123.00
2022-09-03T05:45:17.150Z,126.00
2022-09-03T05:46:18.371Z,130.00
2022-09-03T05:47:19.079Z,132.00
2022-09-03T05:48:17.518Z,141.00
2022-09-03T05:49:17.618Z,148.00
2022-09-03T05:50:17.730Z,163.00
2022-09-03T05:51:17.848Z,176.00
2022-09-03T05:52:19.561Z,183.00
2022-09-03T05:53:18.118Z,192.00
2022-09-03T05:54:18.220Z,201.00
2022-09-03T05:55:18.328Z,214.00
2022-09-03T05:56:18.448Z,232.00
2022-09-03T05:57:20.158Z,240.00
2022-09-03T05:58:18.718Z,256.00
2022-09-03T05:59:18.817Z,262.00
2022-09-03T06:00:18.927Z,269.00
2022-09-03T06:01:20.649Z,273.00
2022-09-03T06:02:19.835Z,290.00
2022-09-03T06:03:19.430Z,294.00
2022-09-03T06:04:19.497Z,306.00
2022-09-03T06:05:21.218Z,309.00
2022-09-03T06:06:19.720Z,316.00
2022-09-03T06:07:19.823Z,323.00
2022-09-03T06:08:21.537Z,327.00
2022-09-03T06:09:20.050Z,337.00
2022-09-03T06:10:24.985Z,343.00
2022-09-03T06:11:21.293Z,343.00
2022-09-03T06:12:20.435Z,346.00
2022-09-03T06:13:21.460Z,351.00
2022-09-03T06:14:22.637Z,363.00
2022-09-03T06:15:22.576Z,371.00
2022-09-03T06:16:29.034Z,359.00
2022-09-03T06:17:22.069Z,374.00
2022-09-03T06:18:23.117Z,384.00
2022-09-03T06:19:22.156Z,395.00
2022-09-03T06:20:21.535Z,390.00
2022-09-03T06:21:21.597Z,400.00
2022-09-03T06:22:21.735Z,411.00
2022-09-03T06:23:25.435Z,422.00
2022-09-03T06:24:22.090Z,418.00
2022-09-03T06:25:22.115Z,442.00
2022-09-03T06:26:22.265Z,417.00
2022-09-03T06:27:23.973Z,431.00
2022-09-03T06:28:23.385Z,445.00
2022-09-03T06:29:22.584Z,442.00
2022-09-03T06:30:22.704Z,455.00
2022-09-03T06:31:22.817Z,417.00
2022-09-03T06:32:24.553Z,440.00
2022-09-03T06:33:23.181Z,493.00
2022-09-03T06:34:24.833Z,399.00
2022-09-03T06:35:23.375Z,450.00
2022-09-03T06:36:23.689Z,462.00
2022-09-03T06:37:27.170Z,462.00
2022-09-03T06:38:23.901Z,460.00
2022-09-03T06:39:25.574Z,479.00
2022-09-03T06:40:24.078Z,490.00
2022-09-03T06:41:24.915Z,481.00
2022-09-03T06:42:26.112Z,389.00
2022-09-03T06:43:24.406Z,481.00
2022-09-03T06:44:26.413Z,496.00
2022-09-03T06:45:24.735Z,504.00
2022-09-03T06:46:26.413Z,508.00
2022-09-03T06:47:26.642Z,506.00
2022-09-03T06:48:25.148Z,502.00
2022-09-03T06:49:25.932Z,524.00
2022-09-03T06:50:31.304Z,530.00
2022-09-03T06:51:28.093Z,538.00
2022-09-03T06:52:26.421Z,547.00
2022-09-03T06:53:32.094Z,548.00
2022-09-03T06:54:28.431Z,545.00
2022-09-03T06:55:26.639Z,550.00
2022-09-03T06:56:28.601Z,554.00
2022-09-03T06:57:26.964Z,560.00
2022-09-03T06:58:29.844Z,561.00
2022-09-03T06:59:28.134Z,562.00
2022-09-03T07:00:26.563Z,569.00
2022-09-03T07:01:28.645Z,572.00
2022-09-03T07:02:26.846Z,581.00
2022-09-03T07:03:26.900Z,578.00
2022-09-03T07:04:28.619Z,581.00
2022-09-03T07:05:27.121Z,581.00
2022-09-03T07:06:27.311Z,587.00
2022-09-03T07:07:27.431Z,589.00
2022-09-03T07:08:27.560Z,595.00
2022-09-03T07:09:29.278Z,594.00
2022-09-03T07:10:29.500Z,599.00
2022-09-03T07:11:27.879Z,602.00
2022-09-03T07:12:29.600Z,608.00
2022-09-03T07:13:28.149Z,616.00
2022-09-03T07:14:29.878Z,619.00
2022-09-03T07:15:28.429Z,615.00
2022-09-03T07:16:28.614Z,614.00
2022-09-03T07:17:28.659Z,577.00
2022-09-03T07:18:28.778Z,625.00
2022-09-03T07:19:30.509Z,628.00
2022-09-03T07:20:29.877Z,628.00
2022-09-03T07:21:29.147Z,628.00
2022-09-03T07:22:31.634Z,639.00
2022-09-03T07:23:29.417Z,640.00
2022-09-03T07:24:31.137Z,642.00
2022-09-03T07:25:29.627Z,651.00
2022-09-03T07:26:30.574Z,651.00
2022-09-03T07:27:31.497Z,652.00
2022-09-03T07:28:30.895Z,656.00
2022-09-03T07:29:30.267Z,662.00
2022-09-03T07:30:30.237Z,674.00
2022-09-03T07:31:32.026Z,674.00
2022-09-03T07:32:30.492Z,684.00
2022-09-03T07:33:33.654Z,655.00
2022-09-03T07:34:32.326Z,666.00
2022-09-03T07:35:30.866Z,670.00
2022-09-03T07:36:35.303Z,680.00
2022-09-03T07:37:32.695Z,689.00
2022-09-03T07:38:31.236Z,684.00
2022-09-03T07:39:32.994Z,685.00
2022-09-03T07:40:31.476Z,694.00
2022-09-03T07:41:31.588Z,696.00
2022-09-03T07:42:31.700Z,694.00
2022-09-03T07:43:31.806Z,697.00
2022-09-03T07:44:33.525Z,699.00
2022-09-03T07:45:32.025Z,706.00
2022-09-03T07:46:32.165Z,705.00
2022-09-03T07:47:32.244Z,700.00
2022-09-03T07:48:37.190Z,705.00
2022-09-03T07:49:35.084Z,712.00
2022-09-03T07:50:32.595Z,700.00
2022-09-03T07:51:33.155Z,691.00
2022-09-03T07:52:32.835Z,717.00
2022-09-03T07:53:32.944Z,689.00
2022-09-03T07:54:36.637Z,717.00
2022-09-03T07:55:33.174Z,718.00
2022-09-03T07:56:33.281Z,712.00
2022-09-03T07:57:35.004Z,714.00
2022-09-03T07:58:34.416Z,717.00
2022-09-03T07:59:35.203Z,713.00
2022-09-03T08:00:34.749Z,743.00
2022-09-03T08:01:33.877Z,696.00
2022-09-03T08:02:33.995Z,701.00
2022-09-03T08:03:35.743Z,710.00
2022-09-03T08:04:35.941Z,709.00
2022-09-03T08:05:34.313Z,713.00
2022-09-03T08:06:34.425Z,708.00
2022-09-03T08:07:34.534Z,718.00
2022-09-03T08:08:34.662Z,708.00
2022-09-03T08:09:36.392Z,715.00
2022-09-03T08:10:34.884Z,717.00
2022-09-03T08:11:35.011Z,714.00
2022-09-03T08:12:35.103Z,712.00
2022-09-03T08:13:36.821Z,711.00
2022-09-03T08:14:37.048Z,715.00
2022-09-03T08:15:35.452Z,713.00
2022-09-03T08:16:36.246Z,712.00
2022-09-03T08:17:35.772Z,709.00
2022-09-03T08:18:35.912Z,710.00
2022-09-03T08:19:36.012Z,706.00
2022-09-03T08:20:37.733Z,702.00
2022-09-03T08:21:36.306Z,701.00
2022-09-03T08:22:36.411Z,700.00
2022-09-03T08:23:38.143Z,701.00
2022-09-03T08:24:36.631Z,697.00
2022-09-03T08:25:38.351Z,698.00
2022-09-03T08:26:36.860Z,698.00
2022-09-03T08:27:37.775Z,690.00
2022-09-03T08:28:37.938Z,692.00
2022-09-03T08:29:38.090Z,687.00
2022-09-03T08:30:39.286Z,689.00
2022-09-03T08:31:38.479Z,684.00
2022-09-03T08:32:38.599Z,686.00
2022-09-03T08:33:38.486Z,687.00
2022-09-03T08:34:38.640Z,684.00
2022-09-03T08:35:37.960Z,682.00
2022-09-03T08:36:39.692Z,679.00
2022-09-03T08:37:38.178Z,677.00
2022-09-03T08:38:38.309Z,679.00
2022-09-03T08:39:39.205Z,681.00
2022-09-03T08:40:39.341Z,672.00
2022-09-03T08:41:40.519Z,667.00
2022-09-03T08:42:39.670Z,667.00
2022-09-03T08:43:39.820Z,668.00
2022-09-03T08:44:39.978Z,666.00
2022-09-03T08:45:40.139Z,663.00
2022-09-03T08:46:42.395Z,663.00
2022-09-03T08:47:40.459Z,656.00
2022-09-03T08:48:41.439Z,655.00
2022-09-03T08:49:41.491Z,647.00
2022-09-03T08:50:40.694Z,651.00
2022-09-03T08:51:40.848Z,651.00
2022-09-03T08:52:41.025Z,652.00
2022-09-03T08:53:41.927Z,641.00
2022-09-03T08:54:42.137Z,640.00
2022-09-03T08:55:41.486Z,639.00
2022-09-03T08:56:42.669Z,640.00
2022-09-03T08:57:41.547Z,639.00
2022-09-03T08:58:41.711Z,633.00
2022-09-03T08:59:41.870Z,629.00
2022-09-03T09:00:42.029Z,627.00
2022-09-03T09:01:43.309Z,629.00
2022-09-03T09:02:42.420Z,627.00
2022-09-03T09:03:42.256Z,620.00
2022-09-03T09:04:43.996Z,619.00
2022-09-03T09:05:43.742Z,616.00
2022-09-03T09:06:43.804Z,610.00
2022-09-03T09:07:46.024Z,611.00
2022-09-03T09:08:42.107Z,608.00
2022-09-03T09:09:43.218Z,607.00
2022-09-03T09:10:43.996Z,606.00
2022-09-03T09:11:46.198Z,602.00
2022-09-03T09:12:46.779Z,604.00
2022-09-03T09:13:42.756Z,598.00
2022-09-03T09:14:42.866Z,596.00
2022-09-03T09:15:45.865Z,596.00
2022-09-03T09:16:44.011Z,590.00
2022-09-03T09:17:43.216Z,591.00
2022-09-03T09:18:43.326Z,584.00
2022-09-03T09:19:43.559Z,587.00
2022-09-03T09:20:45.808Z,587.00
2022-09-03T09:21:44.624Z,579.00
2022-09-03T09:22:47.298Z,582.00
2022-09-03T09:23:44.026Z,580.00
2022-09-03T09:24:45.685Z,576.00
2022-09-03T09:25:45.915Z,578.00
2022-09-03T09:26:44.295Z,572.00
2022-09-03T09:27:44.414Z,575.00
2022-09-03T09:28:44.524Z,570.00
2022-09-03T09:29:45.258Z,564.00
2022-09-03T09:30:44.744Z,561.00
2022-09-03T09:31:45.474Z,561.00
2022-09-03T09:32:44.994Z,561.00
2022-09-03T09:33:45.165Z,561.00
2022-09-03T09:34:48.655Z,556.00
2022-09-03T09:35:46.393Z,556.00
2022-09-03T09:36:47.112Z,559.00
2022-09-03T09:37:45.665Z,560.00
2022-09-03T09:38:45.773Z,564.00
2022-09-03T09:39:47.813Z,564.00
2022-09-03T09:40:47.743Z,558.00
2022-09-03T09:41:46.143Z,558.00
2022-09-03T09:42:46.247Z,558.00
2022-09-03T09:43:46.381Z,559.00
2022-09-03T09:44:46.464Z,564.00
2022-09-03T09:45:48.189Z,569.00
2022-09-03T09:46:49.297Z,567.00
2022-09-03T09:47:47.902Z,572.00
2022-09-03T09:48:47.066Z,571.00
2022-09-03T09:49:47.173Z,573.00
2022-09-03T09:50:48.892Z,571.00
2022-09-03T09:51:47.393Z,575.00
2022-09-03T09:52:49.567Z,574.00
2022-09-03T09:53:47.661Z,579.00
2022-09-03T09:54:48.623Z,578.00
2022-09-03T09:55:51.471Z,587.00
2022-09-03T09:56:51.541Z,590.00
2022-09-03T09:57:49.102Z,587.00
2022-09-03T09:58:48.271Z,588.00
2022-09-03T09:59:48.373Z,587.00
2022-09-03T10:00:51.525Z,591.00
2022-09-03T10:12:21.673Z,613.00
2022-09-03T10:13:21.784Z,614.00
2022-09-03T10:14:22.522Z,612.00
2022-09-03T10:15:22.106Z,614.00
2022-09-03T10:16:22.238Z,620.00
2022-09-03T10:17:26.598Z,623.00
2022-09-03T10:18:26.632Z,629.00
2022-09-03T10:19:22.541Z,628.00
2022-09-03T10:20:22.639Z,628.00
2022-09-03T10:21:24.380Z,628.00
2022-09-03T10:22:26.042Z,634.00
2022-09-03T10:23:24.841Z,631.00
2022-09-03T10:24:23.980Z,640.00
2022-09-03T10:25:24.143Z,645.00
2022-09-03T10:26:24.301Z,645.00
2022-09-03T10:27:26.516Z,653.00
2022-09-03T10:28:24.779Z,651.00
2022-09-03T10:29:24.521Z,654.00
2022-09-03T10:30:27.508Z,658.00
2022-09-03T10:31:24.155Z,664.00
2022-09-03T10:32:24.218Z,665.00
2022-09-03T10:33:25.931Z,666.00
2022-09-03T10:34:26.171Z,667.00
2022-09-03T10:35:24.560Z,671.00
2022-09-03T10:36:24.679Z,676.00
2022-09-03T10:37:24.779Z,676.00
2022-09-03T10:38:24.936Z,680.00
2022-09-03T10:39:28.613Z,685.00
2022-09-03T10:40:25.118Z,686.00
2022-09-03T10:41:25.280Z,693.00
2022-09-03T10:42:25.440Z,698.00
2022-09-03T10:43:28.601Z,708.00
2022-09-03T10:44:25.739Z,707.00
2022-09-03T10:45:28.899Z,712.00
2022-09-03T10:46:25.993Z,713.00
2022-09-03T10:47:26.081Z,718.00
2022-09-03T10:48:26.239Z,722.00
2022-09-03T10:49:27.980Z,725.00
2022-09-03T10:50:26.469Z,732.00
2022-09-03T10:51:26.565Z,741.00
2022-09-03T10:52:26.678Z,747.00
2022-09-03T10:53:26.847Z,746.00
2022-09-03T10:54:28.570Z,754.00
2022-09-03T10:55:27.109Z,758.00
2022-09-03T10:56:28.094Z,760.00
2022-09-03T10:57:27.400Z,766.00
2022-09-03T10:58:27.506Z,772.00
2022-09-03T10:59:29.401Z,775.00
2022-09-03T11:00:27.855Z,777.00
2022-09-03T11:01:28.015Z,790.00
2022-09-03T11:02:28.108Z,795.00
2022-09-03T11:03:28.225Z,801.00
2022-09-03T11:04:29.997Z,810.00
2022-09-03T11:05:31.206Z,815.00
2022-09-03T11:06:28.557Z,819.00
2022-09-03T11:07:28.665Z,814.00
2022-09-03T11:08:28.816Z,828.00
2022-09-03T11:09:30.548Z,834.00
2022-09-03T11:10:31.091Z,845.00
2022-09-03T11:11:32.246Z,839.00
2022-09-03T11:12:29.325Z,852.00
2022-09-03T11:13:29.485Z,857.00
2022-09-03T11:14:32.667Z,866.00
2022-09-03T11:15:29.756Z,869.00
2022-09-03T11:16:30.771Z,864.00
2022-09-03T11:17:32.223Z,865.00
2022-09-03T11:18:30.085Z,865.00
2022-09-03T11:19:30.245Z,870.00
2022-09-03T11:20:30.398Z,889.00
2022-09-03T11:21:32.115Z,902.00
2022-09-03T11:22:30.725Z,910.00
2022-09-03T11:23:30.866Z,927.00
2022-09-03T11:24:31.029Z,930.00
2022-09-03T11:25:31.128Z,928.00
2022-09-03T11:26:32.845Z,935.00
2022-09-03T11:27:31.440Z,940.00
2022-09-03T11:28:31.584Z,937.00
2022-09-03T11:29:31.745Z,940.00
2022-09-03T11:30:31.934Z,947.00
2022-09-03T11:31:33.114Z,956.00
2022-09-03T11:32:32.204Z,1016.00
2022-09-03T11:33:32.293Z,1014.00
2022-09-03T11:34:33.048Z,1012.00
2022-09-03T11:35:32.614Z,1017.00
2022-09-03T11:36:34.334Z,1021.00
2022-09-03T11:37:32.874Z,1035.00
2022-09-03T11:38:32.986Z,1039.00
2022-09-03T11:39:34.820Z,1048.00
2022-09-03T11:40:33.253Z,1047.00
2022-09-03T11:41:34.972Z,1058.00
2022-09-03T11:42:33.452Z,1070.00
2022-09-03T11:43:33.628Z,1058.00
2022-09-03T11:44:33.783Z,234.00
2022-09-03T11:45:33.902Z,1587.00
2022-09-03T11:46:35.663Z,1520.00
2022-09-03T11:47:34.134Z,1403.00
2022-09-03T11:48:35.842Z,1386.00
2022-09-03T11:49:36.067Z,1287.00
2022-09-03T11:50:34.524Z,1305.00
2022-09-03T11:51:36.244Z,1275.00
2022-09-03T11:52:34.802Z,1200.00
2022-09-03T11:53:34.945Z,1194.00
2022-09-03T11:54:35.102Z,1208.00
2022-09-03T11:55:43.617Z,1237.00
2022-09-03T11:56:37.970Z,1283.00
2022-09-03T11:57:35.524Z,1318.00
2022-09-03T11:58:35.695Z,1361.00
2022-09-03T11:59:37.392Z,1371.00
2022-09-03T12:00:35.940Z,1388.00
2022-09-03T12:01:37.660Z,1420.00
2022-09-03T12:02:36.286Z,1413.00
2022-09-03T12:03:36.384Z,1391.00
2022-09-03T12:04:36.557Z,1402.00
2022-09-03T12:05:36.655Z,1412.00
2022-09-03T12:06:38.371Z,1424.00
2022-09-03T12:07:36.921Z,1451.00
2022-09-03T12:08:37.063Z,1495.00
2022-09-03T12:09:37.222Z,1520.00
2022-09-03T12:10:37.351Z,1539.00
2022-09-03T12:11:37.566Z,1552.00
2022-09-03T12:12:39.213Z,1584.00
2022-09-03T12:13:37.800Z,1623.00
2022-09-03T12:14:37.911Z,1648.00
2022-09-03T12:15:39.798Z,1679.00
2022-09-03T12:16:38.121Z,1724.00
2022-09-03T12:17:39.830Z,1784.00
2022-09-03T12:18:38.440Z,1835.00
2022-09-03T12:19:38.570Z,1867.00
2022-09-03T12:20:39.620Z,1933.00
2022-09-03T12:21:40.400Z,1989.00
2022-09-03T12:22:38.962Z,2106.00
2022-09-03T12:23:39.069Z,2260.00
2022-09-03T12:24:40.819Z,2461.00
2022-09-03T12:25:39.330Z,2694.00
2022-09-03T12:26:39.471Z,2968.00
2022-09-03T12:27:41.181Z,3275.00
2022-09-03T12:28:40.664Z,3553.00
2022-09-03T12:29:41.486Z,5290.00
2022-09-03T12:30:40.009Z,8376.00
2022-09-03T12:31:43.037Z,12864.00
2022-09-03T12:32:40.223Z,19362.00
2022-09-03T12:33:40.348Z,23609.00
2022-09-03T12:34:42.081Z,3446.00
2022-09-03T12:36:41.739Z,2692.00
2022-09-03T12:39:10.017Z,2814.00
2022-09-03T12:41:23.573Z,2359.00
2022-09-03T12:41:42.371Z,11901.00
2022-09-03T12:42:44.489Z,8818.00
2022-09-03T12:43:45.088Z,25731.00
2022-09-03T12:44:43.570Z,24656.00
2022-09-03T12:46:43.985Z,25161.00
2022-09-03T12:47:45.200Z,20065.00
2022-09-03T12:48:44.051Z,21279.00
2022-09-03T12:49:43.078Z,23173.00
2022-09-03T12:50:49.394Z,21001.00
2022-09-03T12:51:55.516Z,25211.00
2022-09-03T12:52:44.794Z,25475.00
2022-09-03T12:53:42.811Z,13486.00
2022-09-03T12:54:42.927Z,10119.00
2022-09-03T12:55:46.078Z,4959.00
2022-09-03T12:56:43.170Z,11291.00
2022-09-03T12:57:45.623Z,22930.00
2022-09-03T12:58:44.267Z,17184.00
2022-09-03T12:59:44.431Z,12140.00
2022-09-03T13:00:45.317Z,15840.00
2022-09-03T13:01:44.824Z,10561.00
2022-09-03T13:02:44.649Z,16801.00
2022-09-03T13:03:44.808Z,2180.00
2022-09-03T13:04:45.759Z,1346.00
2022-09-03T13:05:44.269Z,3991.00
2022-09-03T13:06:46.025Z,2744.00
2022-09-03T13:07:44.917Z,3493.00
2022-09-03T13:08:44.632Z,2352.00
2022-09-03T13:09:44.767Z,1087.00
2022-09-03T13:10:45.993Z,18458.00
2022-09-03T13:11:45.038Z,1769.00
2022-09-03T13:12:45.177Z,6835.00
2022-09-03T13:13:45.325Z,6431.00
2022-09-03T13:14:45.447Z,5931.00
2022-09-03T13:15:47.167Z,16911.00
2022-09-03T13:16:47.478Z,23150.00
2022-09-03T13:17:48.796Z,24588.00
2022-09-03T13:18:45.956Z,11697.00
2022-09-03T13:19:46.078Z,2526.00
2022-09-03T13:20:46.210Z,16179.00
2022-09-03T13:21:47.927Z,21639.00
2022-09-03T13:22:49.447Z,21995.00
2022-09-03T13:23:48.226Z,23552.00
2022-09-03T13:24:46.683Z,23742.00
2022-09-03T13:25:48.406Z,16395.00
2022-09-03T13:26:46.936Z,19117.00
2022-09-03T13:27:48.656Z,25441.00
2022-09-03T13:28:47.169Z,24826.00
2022-09-03T13:29:47.306Z,25033.00
2022-09-03T13:30:47.469Z,14019.00
2022-09-03T13:31:47.557Z,6704.00
2022-09-03T13:32:49.266Z,5146.00
2022-09-03T13:33:47.798Z,3244.00
2022-09-03T13:34:47.916Z,3462.00
2022-09-03T13:35:49.639Z,2463.00
2022-09-03T13:36:48.145Z,9102.00
2022-09-03T13:37:48.265Z,25284.00
2022-09-03T13:38:49.985Z,20709.00
2022-09-03T13:39:48.548Z,21747.00
2022-09-03T13:40:48.666Z,8389.00
2022-09-03T13:41:48.829Z,8922.00
2022-09-03T13:42:50.827Z,4683.00
2022-09-03T13:43:50.783Z,2287.00
2022-09-03T13:44:49.165Z,14451.00
2022-09-03T13:45:50.933Z,13628.00
2022-09-03T13:46:51.115Z,18028.00
2022-09-03T13:47:49.525Z,18112.00
2022-09-03T13:48:49.658Z,18268.00
2022-09-03T13:49:49.776Z,18114.00
2022-09-03T13:50:51.495Z,16812.00
2022-09-03T13:51:51.715Z,9609.00
2022-09-03T13:52:50.118Z,4189.00
2022-09-03T13:53:50.237Z,3267.00
2022-09-03T13:54:50.365Z,2835.00
2022-09-03T13:55:50.505Z,2641.00
2022-09-03T13:56:52.224Z,1694.00
2022-09-03T13:57:50.735Z,2732.00
2022-09-03T13:58:50.854Z,2064.00
2022-09-03T13:59:50.982Z,1616.00
2022-09-03T14:00:51.099Z,1319.00
2022-09-03T14:01:52.849Z,1177.00
2022-09-03T14:02:51.376Z,1062.00
2022-09-03T14:03:52.504Z,1094.00
2022-09-03T14:04:51.614Z,1105.00
2022-09-03T14:05:51.756Z,1140.00
2022-09-03T14:06:53.464Z,1154.00
2022-09-03T14:07:53.048Z,1135.00
2022-09-03T14:08:58.692Z,1183.00
2022-09-03T14:09:53.273Z,1339.00
2022-09-03T14:10:52.415Z,1170.00
2022-09-03T14:11:54.134Z,1089.00
2022-09-03T14:12:53.632Z,1271.00
2022-09-03T14:13:52.819Z,1273.00
2022-09-03T14:14:52.945Z,1298.00
2022-09-03T14:15:54.244Z,1439.00
2022-09-03T14:16:54.922Z,1704.00
2022-09-03T14:17:53.326Z,1718.00
2022-09-03T14:18:53.444Z,1831.00
2022-09-03T14:19:53.564Z,1647.00
2022-09-03T14:20:53.705Z,1650.00
2022-09-03T14:21:55.438Z,1586.00
2022-09-03T14:22:53.944Z,1678.00
2022-09-03T14:23:54.083Z,1737.00
2022-09-03T14:24:54.234Z,1580.00
2022-09-03T14:25:54.373Z,1471.00
2022-09-03T14:26:56.089Z,1519.00
2022-09-03T14:27:54.643Z,1481.00
2022-09-03T14:28:54.764Z,1790.00
2022-09-03T14:29:54.895Z,1780.00
2022-09-03T14:30:56.096Z,1823.00
2022-09-03T14:31:55.149Z,1952.00
2022-09-03T14:32:56.834Z,2037.00
2022-09-03T14:33:57.053Z,1963.00
2022-09-03T14:34:55.512Z,1979.00
2022-09-03T14:35:55.643Z,1913.00
2022-09-03T14:36:55.784Z,1711.00
2022-09-03T14:37:56.852Z,1453.00
2022-09-03T14:38:57.623Z,1332.00
2022-09-03T14:39:56.154Z,1300.00
2022-09-03T14:40:56.243Z,1045.00
2022-09-03T14:41:56.368Z,919.00
2022-09-03T14:42:58.082Z,861.00
2022-09-03T14:43:56.644Z,811.00
2022-09-03T14:44:56.743Z,948.00
2022-09-03T14:45:56.936Z,1105.00
2022-09-03T14:46:56.983Z,1283.00
2022-09-03T14:47:58.204Z,1540.00
2022-09-03T14:48:57.282Z,1678.00
2022-09-03T14:49:57.413Z,1676.00
2022-09-03T14:50:57.567Z,1349.00
2022-09-03T14:51:57.702Z,1081.00
2022-09-03T14:52:59.396Z,943.00
2022-09-03T14:53:58.852Z,904.00
2022-09-03T14:54:58.081Z,834.00
2022-09-03T14:55:58.241Z,822.00
2022-09-03T14:56:58.341Z,909.00
2022-09-03T14:58:00.094Z,964.00
2022-09-03T14:58:58.780Z,1066.00
2022-09-03T14:59:58.752Z,1165.00
2022-09-03T15:00:58.913Z,1302.00
2022-09-03T15:01:59.066Z,1373.00
2022-09-03T15:03:00.732Z,1368.00
2022-09-03T15:03:59.253Z,1295.00
2022-09-03T15:04:59.373Z,1265.00
2022-09-03T15:06:01.091Z,1261.00
2022-09-03T15:07:01.322Z,1234.00
2022-09-03T15:07:59.784Z,1190.00
2022-09-03T15:08:59.902Z,1158.00
2022-09-03T15:10:00.044Z,1165.00
2022-09-03T15:11:00.173Z,1180.00
2022-09-03T15:12:01.881Z,1191.00
2022-09-03T15:13:00.414Z,1198.00
2022-09-03T15:14:00.551Z,1259.00
2022-09-03T15:15:02.273Z,1290.00
2022-09-03T15:16:00.839Z,1161.00
2022-09-03T15:17:02.520Z,1008.00
2022-09-03T15:18:01.063Z,966.00
2022-09-03T15:19:01.190Z,865.00
2022-09-03T15:20:01.332Z,809.00
2022-09-03T15:21:03.030Z,882.00
2022-09-03T15:22:01.608Z,1066.00
2022-09-03T15:23:01.720Z,1152.00
2022-09-03T15:24:03.451Z,1167.00
2022-09-03T15:25:01.960Z,1164.00
2022-09-03T15:26:02.088Z,1093.00
2022-09-03T15:27:03.801Z,968.00
2022-09-03T15:28:02.321Z,880.00
2022-09-03T15:29:02.450Z,767.00
2022-09-03T15:30:02.573Z,779.00
2022-09-03T15:31:02.702Z,917.00
2022-09-03T15:32:04.487Z,934.00
2022-09-03T15:33:02.991Z,1006.00
2022-09-03T15:34:03.099Z,1018.00
2022-09-03T15:35:03.220Z,1037.00
2022-09-03T15:36:03.342Z,1118.00
2022-09-03T15:37:07.154Z,1155.00
2022-09-03T15:38:05.208Z,1148.00
2022-09-03T15:39:04.942Z,1159.00
2022-09-03T15:40:03.911Z,1073.00
2022-09-03T15:41:03.989Z,950.00
2022-09-03T15:42:04.119Z,817.00
2022-09-03T15:43:04.249Z,715.00
2022-09-03T15:44:05.969Z,637.00
2022-09-03T15:45:04.522Z,598.00
2022-09-03T15:46:04.816Z,589.00
2022-09-03T15:47:04.797Z,605.00
2022-09-03T15:48:04.936Z,637.00
2022-09-03T15:49:06.661Z,689.00
2022-09-03T15:50:05.188Z,705.00
2022-09-03T15:51:05.338Z,648.00
2022-09-03T15:52:05.468Z,542.00
2022-09-03T15:53:05.592Z,510.00
2022-09-03T15:54:07.319Z,530.00
2022-09-03T15:55:05.832Z,605.00
2022-09-03T15:56:08.337Z,692.00
2022-09-03T15:57:07.072Z,764.00
2022-09-03T15:58:07.806Z,863.00
2022-09-03T15:59:06.309Z,882.00
2022-09-03T16:00:06.439Z,888.00
2022-09-03T16:11:41.049Z,600.00
2022-09-03T16:12:41.149Z,584.00
2022-09-03T16:13:41.308Z,573.00
2022-09-03T16:14:41.409Z,603.00
2022-09-03T16:15:41.597Z,648.00
2022-09-03T16:16:44.136Z,684.00
2022-09-03T16:17:41.759Z,685.00
2022-09-03T16:18:47.893Z,670.00
2022-09-03T16:19:43.040Z,648.00
2022-09-03T16:20:43.770Z,590.00
2022-09-03T16:21:43.309Z,521.00
2022-09-03T16:22:42.439Z,488.00
2022-09-03T16:23:42.611Z,482.00
2022-09-03T16:24:42.714Z,487.00
2022-09-03T16:25:44.448Z,487.00
2022-09-03T16:26:44.650Z,494.00
2022-09-03T16:27:43.116Z,473.00
2022-09-03T16:28:43.247Z,455.00
2022-09-03T16:29:43.397Z,422.00
2022-09-03T16:30:45.127Z,390.00
2022-09-03T16:31:43.786Z,377.00
2022-09-03T16:32:45.408Z,370.00
2022-09-03T16:33:43.967Z,357.00
2022-09-03T16:34:44.088Z,370.00
2022-09-03T16:35:44.208Z,383.00
2022-09-03T16:36:45.917Z,393.00
2022-09-03T16:37:44.477Z,375.00
2022-09-03T16:38:46.210Z,361.00
2022-09-03T16:39:44.814Z,332.00
2022-09-03T16:40:44.877Z,301.00
2022-09-03T16:41:45.026Z,274.00
2022-09-03T16:42:46.743Z,258.00
2022-09-03T16:43:45.478Z,239.00
2022-09-03T16:44:45.475Z,246.00
2022-09-03T16:45:45.665Z,247.00
2022-09-03T16:46:45.706Z,258.00
2022-09-03T16:47:47.439Z,263.00
2022-09-03T16:48:46.006Z,237.00